VOBZ/VGA METAR and TAF weather

Enter ICAO airport designator
Station Type Date Time Source
VOBZ METAR 2020/01/26 03:30 UTC NOAA

VOBZ 260330Z 11002KT 3500 HZ NSC 25/20 Q1015 NOSIG


Station Type Date Time Source
VOBZ Decoded METAR 2020/01/26 03:30 UTC NOAA

Vijayawada / Gannavaram, India (VOBZ) 16-32N 080-48E 24M
Jan 25, 2020 - 10:30 PM EST / 2020.01.26 0330 UTC
Wind: from the ESE (110 degrees) at 2 MPH (2 KT):0
Visibility: 2 mile(s):0
Weather: haze
Temperature: 77 F (25 C)
Dew Point: 68 F (20 C)
Relative Humidity: 73%
Pressure (altimeter): 29.97 in. Hg (1015 hPa)
ob: VOBZ 260330Z 11002KT 3500 HZ NSC 25/20 Q1015 NOSIG
cycle: 3

Station Type Date Time Source
VOBZ TAF 2019/12/27 09:00 UTC NOAA

TAF VOBZ 270800Z 2709/2718 08006KT 5000 HZ FEW020 BKN100
TEMPO 2709/2713 14005KT 5000 HZ SCT020
TEMPO 2713/2718 00000KT 4000 BR -DZ FEW025 BKN080

Example: see airport list